KLM1751 EHAM-EDDH
Flight info
| Callsign | KLM1751 |
|---|---|
| Flight time | 0h 47m |
| Altitude | 29000 |
| Route | ANDIK M105 RIBSO RIBSO7A |
| Aircraft | A21N/M-SDE2E3FGHIRWXY/LB1 |
Departure
| Time | 2026-04-30 18:17 |
|---|---|
| Airport | Amsterdam Airport Schiphol (EHAM) |
Arrival
| Time | 2026-04-30 19:05 |
|---|---|
| Airport | Hamburg Helmut Schmidt Airport (EDDH) |
| Time | Latitude | Longitude | Altitude | Speed | Heading |
|---|---|---|---|---|---|
| 2026-04-30 17:43 | 52.31007 | 4.77175 | 11 ft | 0 kts | 183° |
| 2026-04-30 18:00 | 52.31041 | 4.77178 | 11 ft | 1 kts | 183° |
| 2026-04-30 18:00 | 52.31077 | 4.77143 | 10 ft | 2 kts | 110° |
| 2026-04-30 18:01 | 52.31079 | 4.77115 | 10 ft | 0 kts | 91° |
| 2026-04-30 18:06 | 52.31073 | 4.77416 | 12 ft | 9 kts | 97° |
| 2026-04-30 18:07 | 52.31218 | 4.77640 | 5 ft | 14 kts | 3° |
| 2026-04-30 18:08 | 52.31480 | 4.77611 | 0 ft | 9 kts | 323° |
| 2026-04-30 18:09 | 52.31572 | 4.77164 | 0 ft | 14 kts | 266° |
| 2026-04-30 18:10 | 52.31542 | 4.76281 | -2 ft | 20 kts | 266° |
| 2026-04-30 18:11 | 52.31513 | 4.75444 | 1 ft | 17 kts | 267° |
| 2026-04-30 18:11 | 52.31492 | 4.74828 | -4 ft | 12 kts | 266° |
| 2026-04-30 18:12 | 52.31536 | 4.74663 | -7 ft | 2 kts | 356° |
| 2026-04-30 18:13 | 52.31549 | 4.74661 | -7 ft | 0 kts | 357° |
| 2026-04-30 18:13 | 52.31561 | 4.74660 | -7 ft | 0 kts | 357° |
| 2026-04-30 18:14 | 52.31563 | 4.74660 | -7 ft | 2 kts | 357° |
| 2026-04-30 18:15 | 52.31667 | 4.74752 | -7 ft | 4 kts | 87° |
| 2026-04-30 18:15 | 52.31667 | 4.74754 | -7 ft | 0 kts | 87° |
| 2026-04-30 18:16 | 52.31684 | 4.75261 | -2 ft | 83 kts | 87° |
| 2026-04-30 18:17 | 52.31731 | 4.76608 | -5 ft | 151 kts | 86° |
| 2026-04-30 18:17 | 52.31780 | 4.78446 | 480 ft | 166 kts | 91° |
| 2026-04-30 18:17 | 52.31966 | 4.82069 | 2178 ft | 164 kts | 90° |
| 2026-04-30 18:18 | 52.32073 | 4.83988 | 2746 ft | 181 kts | 90° |
| 2026-04-30 18:18 | 52.32179 | 4.86124 | 3315 ft | 198 kts | 90° |
| 2026-04-30 18:18 | 52.32312 | 4.88469 | 3816 ft | 221 kts | 86° |
| 2026-04-30 18:18 | 52.32820 | 4.90977 | 4362 ft | 248 kts | 66° |
| 2026-04-30 18:19 | 52.33825 | 4.93368 | 5178 ft | 262 kts | 58° |
| 2026-04-30 18:19 | 52.34885 | 4.95707 | 6225 ft | 262 kts | 58° |
| 2026-04-30 18:19 | 52.35950 | 4.98098 | 7165 ft | 264 kts | 59° |
| 2026-04-30 18:19 | 52.37023 | 5.00535 | 8049 ft | 267 kts | 59° |
| 2026-04-30 18:20 | 52.38100 | 5.02992 | 8921 ft | 270 kts | 59° |
| 2026-04-30 18:20 | 52.39182 | 5.05474 | 9789 ft | 273 kts | 59° |
| 2026-04-30 18:20 | 52.40293 | 5.08024 | 10620 ft | 277 kts | 59° |
| 2026-04-30 18:20 | 52.41438 | 5.10606 | 11153 ft | 292 kts | 54° |
| 2026-04-30 18:21 | 52.42999 | 5.12886 | 11497 ft | 317 kts | 37° |
| 2026-04-30 18:21 | 52.45081 | 5.14394 | 11946 ft | 341 kts | 20° |
| 2026-04-30 18:21 | 52.47397 | 5.15506 | 12337 ft | 356 kts | 24° |
| 2026-04-30 18:21 | 52.49499 | 5.17666 | 12619 ft | 362 kts | 49° |
| 2026-04-30 18:22 | 52.50885 | 5.21102 | 13126 ft | 364 kts | 66° |
| 2026-04-30 18:22 | 52.53039 | 5.28647 | 14494 ft | 371 kts | 67° |
| 2026-04-30 18:22 | 52.54177 | 5.32450 | 15230 ft | 375 kts | 66° |
| 2026-04-30 18:23 | 52.55352 | 5.36230 | 15882 ft | 378 kts | 65° |
| 2026-04-30 18:23 | 52.56576 | 5.40076 | 16503 ft | 382 kts | 65° |
| 2026-04-30 18:23 | 52.57820 | 5.43924 | 17173 ft | 386 kts | 64° |
| 2026-04-30 18:23 | 52.59092 | 5.47820 | 17743 ft | 389 kts | 64° |
| 2026-04-30 18:24 | 52.61684 | 5.55714 | 18965 ft | 396 kts | 64° |
| 2026-04-30 18:24 | 52.62994 | 5.59696 | 19554 ft | 400 kts | 64° |
| 2026-04-30 18:24 | 52.64303 | 5.63682 | 20092 ft | 403 kts | 63° |
| 2026-04-30 18:25 | 52.65651 | 5.67788 | 20628 ft | 407 kts | 64° |
| 2026-04-30 18:25 | 52.68620 | 5.75788 | 21612 ft | 419 kts | 51° |
| 2026-04-30 18:25 | 52.70823 | 5.78964 | 22100 ft | 427 kts | 37° |
| 2026-04-30 18:26 | 52.76249 | 5.83069 | 23091 ft | 436 kts | 23° |
| 2026-04-30 18:26 | 52.79062 | 5.84824 | 23531 ft | 440 kts | 23° |
| 2026-04-30 18:26 | 52.81936 | 5.86601 | 23976 ft | 443 kts | 23° |
| 2026-04-30 18:27 | 52.87678 | 5.90397 | 24834 ft | 445 kts | 31° |
| 2026-04-30 18:27 | 52.90030 | 5.93667 | 25192 ft | 443 kts | 52° |
| 2026-04-30 18:28 | 52.92760 | 6.02681 | 26073 ft | 442 kts | 67° |
| 2026-04-30 18:28 | 52.94002 | 6.07313 | 26498 ft | 444 kts | 66° |
| 2026-04-30 18:28 | 52.96545 | 6.16521 | 27525 ft | 441 kts | 65° |
| 2026-04-30 18:29 | 52.97840 | 6.21129 | 27974 ft | 441 kts | 65° |
| 2026-04-30 18:29 | 53.01782 | 6.35067 | 29077 ft | 445 kts | 65° |
| 2026-04-30 18:30 | 53.04355 | 6.44167 | 29370 ft | 432 kts | 65° |
| 2026-04-30 18:30 | 53.06882 | 6.53128 | 29373 ft | 430 kts | 64° |
| 2026-04-30 18:31 | 53.10663 | 6.66601 | 29372 ft | 430 kts | 65° |
| 2026-04-30 18:32 | 53.14430 | 6.80103 | 29368 ft | 429 kts | 65° |
| 2026-04-30 18:33 | 53.18161 | 6.93550 | 29376 ft | 429 kts | 65° |
| 2026-04-30 18:33 | 53.21904 | 7.07118 | 29385 ft | 430 kts | 65° |
| 2026-04-30 18:34 | 53.25620 | 7.20666 | 29385 ft | 428 kts | 65° |
| 2026-04-30 18:35 | 53.28081 | 7.29683 | 29389 ft | 428 kts | 65° |
| 2026-04-30 18:35 | 53.30518 | 7.38650 | 29394 ft | 427 kts | 65° |
| 2026-04-30 18:36 | 53.34184 | 7.52201 | 29397 ft | 428 kts | 65° |
| 2026-04-30 18:37 | 53.37829 | 7.65766 | 29359 ft | 424 kts | 65° |
| 2026-04-30 18:37 | 53.39027 | 7.70237 | 28932 ft | 421 kts | 65° |
| 2026-04-30 18:37 | 53.40229 | 7.74730 | 28082 ft | 424 kts | 65° |
| 2026-04-30 18:37 | 53.41423 | 7.79199 | 27046 ft | 431 kts | 65° |
| 2026-04-30 18:38 | 53.42658 | 7.83825 | 25953 ft | 437 kts | 65° |
| 2026-04-30 18:38 | 53.43874 | 7.88396 | 25468 ft | 428 kts | 65° |
| 2026-04-30 18:38 | 53.45068 | 7.92903 | 25245 ft | 415 kts | 66° |
| 2026-04-30 18:38 | 53.46210 | 7.97218 | 25021 ft | 403 kts | 66° |
| 2026-04-30 18:39 | 53.47331 | 8.01469 | 24804 ft | 391 kts | 65° |
| 2026-04-30 18:39 | 53.48410 | 8.05555 | 24593 ft | 379 kts | 65° |
| 2026-04-30 18:39 | 53.49767 | 8.09230 | 24362 ft | 368 kts | 49° |
| 2026-04-30 18:39 | 53.51698 | 8.11873 | 24101 ft | 356 kts | 29° |
| 2026-04-30 18:40 | 53.53992 | 8.13316 | 23627 ft | 351 kts | 17° |
| 2026-04-30 18:40 | 53.56339 | 8.14246 | 22988 ft | 350 kts | 14° |
| 2026-04-30 18:40 | 53.58719 | 8.15104 | 22606 ft | 343 kts | 17° |
| 2026-04-30 18:40 | 53.60812 | 8.16754 | 22342 ft | 330 kts | 41° |
| 2026-04-30 18:41 | 53.62243 | 8.19621 | 22003 ft | 323 kts | 60° |
| 2026-04-30 18:41 | 53.63063 | 8.23123 | 21588 ft | 320 kts | 74° |
| 2026-04-30 18:41 | 53.63631 | 8.26716 | 21169 ft | 318 kts | 74° |
| 2026-04-30 18:41 | 53.64192 | 8.30246 | 20752 ft | 316 kts | 74° |
| 2026-04-30 18:42 | 53.64772 | 8.33818 | 20347 ft | 313 kts | 73° |
| 2026-04-30 18:42 | 53.65931 | 8.40808 | 19552 ft | 308 kts | 73° |
| 2026-04-30 18:42 | 53.66504 | 8.44224 | 19119 ft | 306 kts | 73° |
| 2026-04-30 18:45 | 53.72038 | 8.77344 | 15100 ft | 285 kts | 75° |
| 2026-04-30 18:45 | 53.72568 | 8.80548 | 14689 ft | 283 kts | 75° |
| 2026-04-30 18:45 | 53.73095 | 8.83730 | 14297 ft | 281 kts | 75° |
| 2026-04-30 18:46 | 53.73611 | 8.86865 | 13899 ft | 279 kts | 75° |
| 2026-04-30 18:46 | 53.74125 | 8.89989 | 13545 ft | 277 kts | 75° |
| 2026-04-30 18:46 | 53.74639 | 8.93123 | 13189 ft | 276 kts | 75° |
| 2026-04-30 18:46 | 53.75149 | 8.96234 | 12795 ft | 276 kts | 75° |
| 2026-04-30 18:47 | 53.75662 | 8.99359 | 12357 ft | 275 kts | 75° |
| 2026-04-30 18:47 | 53.76165 | 9.02432 | 12011 ft | 273 kts | 75° |
| 2026-04-30 18:47 | 53.76668 | 9.05510 | 11634 ft | 272 kts | 75° |
| 2026-04-30 18:47 | 53.77164 | 9.08555 | 11435 ft | 269 kts | 75° |
| 2026-04-30 18:48 | 53.77659 | 9.11598 | 11443 ft | 271 kts | 75° |
| 2026-04-30 18:48 | 53.78158 | 9.14673 | 11426 ft | 271 kts | 75° |
| 2026-04-30 18:48 | 53.78651 | 9.17720 | 11404 ft | 271 kts | 75° |
| 2026-04-30 18:48 | 53.79148 | 9.20789 | 11155 ft | 271 kts | 75° |
| 2026-04-30 18:49 | 53.79642 | 9.23857 | 10923 ft | 269 kts | 75° |
| 2026-04-30 18:49 | 53.80130 | 9.26899 | 10683 ft | 268 kts | 75° |
| 2026-04-30 18:49 | 53.80601 | 9.29962 | 10429 ft | 267 kts | 79° |
| 2026-04-30 18:49 | 53.80673 | 9.33065 | 10261 ft | 268 kts | 94° |
| 2026-04-30 18:50 | 53.80242 | 9.36118 | 10135 ft | 271 kts | 109° |
| 2026-04-30 18:50 | 53.79346 | 9.38949 | 10016 ft | 273 kts | 119° |
| 2026-04-30 18:50 | 53.78305 | 9.41600 | 9895 ft | 272 kts | 120° |
| 2026-04-30 18:50 | 53.77244 | 9.44172 | 9718 ft | 264 kts | 126° |
| 2026-04-30 18:51 | 53.75802 | 9.46074 | 9491 ft | 263 kts | 152° |
| 2026-04-30 18:51 | 53.74044 | 9.46756 | 9307 ft | 262 kts | 175° |
| 2026-04-30 18:51 | 53.72273 | 9.46205 | 9104 ft | 263 kts | 199° |
| 2026-04-30 18:51 | 53.70690 | 9.44655 | 8785 ft | 262 kts | 208° |
| 2026-04-30 18:52 | 53.69041 | 9.43562 | 8398 ft | 253 kts | 178° |
| 2026-04-30 18:52 | 53.67353 | 9.43972 | 8080 ft | 243 kts | 160° |
| 2026-04-30 18:52 | 53.65730 | 9.44687 | 7743 ft | 242 kts | 160° |
| 2026-04-30 18:52 | 53.64111 | 9.45377 | 7402 ft | 241 kts | 161° |
| 2026-04-30 18:53 | 53.62484 | 9.46046 | 7051 ft | 239 kts | 161° |
| 2026-04-30 18:53 | 53.60875 | 9.46693 | 6710 ft | 238 kts | 162° |
| 2026-04-30 18:53 | 53.59270 | 9.47333 | 6380 ft | 236 kts | 162° |
| 2026-04-30 18:53 | 53.57674 | 9.47967 | 6055 ft | 235 kts | 162° |
| 2026-04-30 18:54 | 53.56098 | 9.48592 | 5723 ft | 234 kts | 162° |
| 2026-04-30 18:54 | 53.54527 | 9.49215 | 5375 ft | 233 kts | 162° |
| 2026-04-30 18:54 | 53.52936 | 9.49840 | 5058 ft | 232 kts | 162° |
| 2026-04-30 18:54 | 53.51374 | 9.50399 | 4740 ft | 232 kts | 170° |
| 2026-04-30 18:55 | 53.49784 | 9.49966 | 4352 ft | 240 kts | 203° |
| 2026-04-30 18:55 | 53.47504 | 9.45959 | 4011 ft | 241 kts | 233° |
| 2026-04-30 18:55 | 53.46540 | 9.43641 | 4009 ft | 241 kts | 232° |
| 2026-04-30 18:56 | 53.43829 | 9.41021 | 3984 ft | 230 kts | 173° |
| 2026-04-30 18:56 | 53.42353 | 9.41821 | 3990 ft | 223 kts | 140° |
| 2026-04-30 18:56 | 53.41415 | 9.43802 | 3994 ft | 217 kts | 107° |
| 2026-04-30 18:57 | 53.41331 | 9.48780 | 3997 ft | 215 kts | 84° |
| 2026-04-30 18:57 | 53.41482 | 9.51273 | 3988 ft | 216 kts | 83° |
| 2026-04-30 18:57 | 53.41804 | 9.53710 | 3973 ft | 209 kts | 72° |
| 2026-04-30 18:58 | 53.42876 | 9.57944 | 4065 ft | 197 kts | 60° |
| 2026-04-30 18:58 | 53.43670 | 9.59825 | 4010 ft | 198 kts | 52° |
| 2026-04-30 18:58 | 53.44576 | 9.61545 | 4007 ft | 198 kts | 49° |
| 2026-04-30 18:59 | 53.46391 | 9.64963 | 3971 ft | 185 kts | 51° |
| 2026-04-30 19:00 | 53.48760 | 9.69760 | 3965 ft | 177 kts | 53° |
| 2026-04-30 19:00 | 53.49532 | 9.71355 | 3789 ft | 177 kts | 53° |
| 2026-04-30 19:00 | 53.51084 | 9.74540 | 3320 ft | 176 kts | 52° |
| 2026-04-30 19:01 | 53.52638 | 9.77710 | 2856 ft | 176 kts | 52° |
| 2026-04-30 19:01 | 53.53418 | 9.79300 | 2623 ft | 176 kts | 52° |
| 2026-04-30 19:02 | 53.54973 | 9.82460 | 2163 ft | 175 kts | 52° |
| 2026-04-30 19:02 | 53.56492 | 9.85545 | 1692 ft | 163 kts | 52° |
| 2026-04-30 19:03 | 53.57802 | 9.88201 | 1293 ft | 136 kts | 53° |
| 2026-04-30 19:03 | 53.58995 | 9.90632 | 961 ft | 135 kts | 51° |
| 2026-04-30 19:04 | 53.60190 | 9.93053 | 608 ft | 134 kts | 51° |
| 2026-04-30 19:04 | 53.61381 | 9.95476 | 248 ft | 134 kts | 51° |
| 2026-04-30 19:05 | 53.62537 | 9.97813 | 29 ft | 108 kts | 51° |
| 2026-04-30 19:05 | 53.63079 | 9.98956 | 36 ft | 27 kts | 72° |
| 2026-04-30 19:06 | 53.63084 | 9.99259 | 33 ft | 11 kts | 97° |
| 2026-04-30 19:06 | 53.63080 | 9.99347 | 32 ft | 4 kts | 77° |
| 2026-04-30 19:06 | 53.63083 | 9.99361 | 32 ft | 0 kts | 60° |
| 2026-04-30 19:07 | 53.63118 | 9.99451 | 32 ft | 6 kts | 55° |
| 2026-04-30 19:07 | 53.63149 | 9.99523 | 31 ft | 8 kts | 53° |
| 2026-04-30 19:08 | 53.63201 | 9.99632 | 32 ft | 0 kts | 49° |
| 2026-04-30 19:09 | 53.63260 | 9.99732 | 30 ft | 10 kts | 43° |
| 2026-04-30 19:09 | 53.63309 | 9.99824 | 31 ft | 10 kts | 51° |
| 2026-04-30 19:09 | 53.63354 | 9.99917 | 32 ft | 10 kts | 51° |
| 2026-04-30 19:10 | 53.63436 | 10.00081 | 37 ft | 5 kts | 50° |
| 2026-04-30 19:10 | 53.63445 | 10.00160 | 40 ft | 5 kts | 104° |
| 2026-04-30 19:11 | 53.63429 | 10.00206 | 41 ft | 4 kts | 139° |
| 2026-04-30 19:11 | 53.63350 | 10.00230 | 40 ft | 7 kts | 176° |
| 2026-04-30 19:11 | 53.63329 | 10.00270 | 40 ft | 3 kts | 96° |
| 2026-04-30 19:12 | 53.63331 | 10.00308 | 41 ft | 2 kts | 85° |
| 2026-04-30 19:12 | 53.63331 | 10.00328 | 41 ft | 0 kts | 85° |
| 2026-04-30 19:12 | 53.63332 | 10.00338 | 42 ft | 0 kts | 85° |
| 2026-04-30 19:13 | 53.63332 | 10.00342 | 42 ft | 0 kts | 85° |